createdAt,value
2022-08-11T00:00:32.855Z,17.00
2022-08-11T00:03:04.263Z,17.00
2022-08-11T00:05:32.135Z,17.00
2022-08-11T00:07:59.637Z,17.00
2022-08-11T00:10:28.364Z,17.00
2022-08-11T00:12:59.435Z,17.00
2022-08-11T00:15:28.016Z,17.00
2022-08-11T00:17:59.109Z,17.00
2022-08-11T00:20:31.178Z,16.90
2022-08-11T00:23:18.367Z,16.90
2022-08-11T00:25:47.835Z,16.90
2022-08-11T00:28:27.019Z,16.80
2022-08-11T00:30:55.300Z,16.80
2022-08-11T00:33:44.458Z,16.80
2022-08-11T00:36:13.287Z,16.80
2022-08-11T00:38:41.580Z,16.70
2022-08-11T00:41:15.850Z,16.70
2022-08-11T00:44:01.878Z,16.70
2022-08-11T00:46:41.685Z,16.50
2022-08-11T00:49:13.570Z,16.50
2022-08-11T00:52:02.101Z,16.40
2022-08-11T00:54:55.204Z,16.40
2022-08-11T00:57:36.807Z,16.20
2022-08-11T01:00:13.823Z,16.30
2022-08-11T01:02:47.156Z,16.20
2022-08-11T01:05:20.415Z,16.10
2022-08-11T01:08:02.199Z,16.10
2022-08-11T01:10:30.645Z,16.20
2022-08-11T01:13:10.176Z,16.00
2022-08-11T01:15:57.546Z,16.10
2022-08-11T01:18:28.519Z,16.00
2022-08-11T01:21:14.373Z,16.00
2022-08-11T01:23:50.879Z,15.90
2022-08-11T01:26:36.685Z,15.80
2022-08-11T01:29:13.010Z,15.70
2022-08-11T01:31:40.165Z,15.70
2022-08-11T01:34:10.516Z,15.60
2022-08-11T01:36:41.414Z,15.50
2022-08-11T01:39:08.562Z,15.50
2022-08-11T01:41:54.215Z,15.80
2022-08-11T01:44:39.986Z,15.50
2022-08-11T01:47:07.167Z,15.40
2022-08-11T01:50:07.793Z,15.40
2022-08-11T01:52:42.360Z,15.40
2022-08-11T01:55:15.933Z,15.30
2022-08-11T01:57:47.965Z,15.40
2022-08-11T02:00:18.231Z,15.20
2022-08-11T02:02:48.143Z,15.60
2022-08-11T02:05:27.734Z,15.20
2022-08-11T02:08:13.267Z,15.10
2022-08-11T02:11:01.601Z,15.00
2022-08-11T02:13:36.747Z,15.00
2022-08-11T02:16:24.383Z,15.00
2022-08-11T02:19:28.939Z,14.90
2022-08-11T02:22:24.635Z,14.80
2022-08-11T02:25:17.612Z,14.80
2022-08-11T02:27:48.327Z,14.80
2022-08-11T02:30:16.904Z,14.80
2022-08-11T02:33:25.250Z,14.70
2022-08-11T02:36:06.667Z,14.60
2022-08-11T02:38:33.865Z,14.60
2022-08-11T02:41:31.967Z,15.40
2022-08-11T02:44:06.927Z,14.60
2022-08-11T02:47:14.662Z,14.60
2022-08-11T02:50:03.482Z,14.50
2022-08-11T02:52:46.741Z,14.40
2022-08-11T02:55:56.367Z,14.30
2022-08-11T02:58:32.860Z,14.40
2022-08-11T03:01:18.758Z,14.40
2022-08-11T03:03:58.959Z,14.30
2022-08-11T03:06:45.287Z,14.40
2022-08-11T03:09:27.673Z,14.40
2022-08-11T03:12:30.032Z,14.30
2022-08-11T03:15:20.707Z,14.20
2022-08-11T03:18:06.805Z,14.20
2022-08-11T03:20:39.317Z,14.20
2022-08-11T03:23:19.438Z,14.10
2022-08-11T03:26:06.961Z,14.10
2022-08-11T03:28:42.686Z,13.50
2022-08-11T03:31:15.903Z,14.00
2022-08-11T03:34:07.213Z,14.20
2022-08-11T03:37:15.971Z,14.10
2022-08-11T03:40:00.124Z,14.20
2022-08-11T03:42:40.585Z,14.10
2022-08-11T03:45:28.893Z,14.10
2022-08-11T03:48:22.565Z,14.00
2022-08-11T03:51:07.278Z,13.90
2022-08-11T03:53:48.507Z,13.90
2022-08-11T03:56:21.960Z,14.00
2022-08-11T03:59:08.928Z,13.90
2022-08-11T04:01:36.078Z,13.80
2022-08-11T04:04:15.800Z,13.90
2022-08-11T04:06:53.661Z,13.90
2022-08-11T04:09:36.101Z,13.90
2022-08-11T04:12:37.115Z,13.80
2022-08-11T04:15:59.566Z,13.90
2022-08-11T04:18:33.088Z,13.90
2022-08-11T04:21:00.345Z,14.40
2022-08-11T04:24:34.486Z,13.90
2022-08-11T04:26:37.450Z,13.90
2022-08-11T04:29:15.866Z,14.00
2022-08-11T04:31:52.639Z,13.90
2022-08-11T04:34:34.754Z,14.00
2022-08-11T04:37:37.265Z,14.00
2022-08-11T04:40:33.626Z,14.10
2022-08-11T04:43:22.506Z,14.20
2022-08-11T04:46:11.447Z,14.30
2022-08-11T04:49:06.770Z,14.30
2022-08-11T04:52:05.112Z,14.30
2022-08-11T04:54:51.188Z,14.40
2022-08-11T04:57:40.632Z,14.50
2022-08-11T05:00:27.799Z,14.50
2022-08-11T05:03:24.515Z,14.10
2022-08-11T05:06:10.520Z,14.60
2022-08-11T05:08:56.291Z,14.70
2022-08-11T05:11:42.269Z,14.80
2022-08-11T05:14:31.318Z,15.00
2022-08-11T05:17:19.511Z,14.90
2022-08-11T05:20:06.622Z,15.10
2022-08-11T05:22:52.904Z,15.10
2022-08-11T05:26:44.801Z,15.10
2022-08-11T05:28:59.882Z,15.20
2022-08-11T05:31:56.437Z,15.30
2022-08-11T05:34:47.101Z,15.40
2022-08-11T05:37:34.518Z,15.40
2022-08-11T05:40:40.616Z,15.60
2022-08-11T05:43:36.976Z,15.60
2022-08-11T05:46:24.125Z,15.70
2022-08-11T05:49:10.557Z,15.80
2022-08-11T05:52:05.738Z,15.90
2022-08-11T05:54:59.735Z,16.10
2022-08-11T05:57:50.644Z,16.10
2022-08-11T06:54:30.759Z,17.90
2022-08-11T10:59:36.249Z,23.80
2022-08-11T11:20:34.503Z,24.00
2022-08-11T11:23:02.400Z,24.20
2022-08-11T11:25:35.752Z,24.40
2022-08-11T11:28:09.246Z,24.50
2022-08-11T11:30:43.069Z,24.40
2022-08-11T11:33:10.290Z,24.10
2022-08-11T11:38:48.491Z,23.80
2022-08-11T11:50:58.622Z,24.20
2022-08-11T11:53:26.164Z,24.40
2022-08-11T12:05:37.144Z,23.60
2022-08-11T12:15:04.103Z,24.00
2022-08-11T12:17:31.654Z,24.10
2022-08-11T12:29:59.203Z,23.60
2022-08-11T12:32:29.105Z,23.60
2022-08-11T12:34:58.189Z,23.90
2022-08-11T13:03:01.751Z,24.40
2022-08-11T13:05:29.241Z,24.40
2022-08-11T13:08:00.735Z,24.50
2022-08-11T13:10:47.833Z,24.40
2022-08-11T13:13:55.085Z,24.20
2022-08-11T13:16:03.003Z,24.00
2022-08-11T13:18:30.379Z,23.90
2022-08-11T13:20:58.331Z,23.80
2022-08-11T13:23:26.456Z,23.80
2022-08-11T13:25:54.693Z,23.80
2022-08-11T13:28:22.863Z,23.90
2022-08-11T13:34:20.555Z,24.20
2022-08-11T13:36:52.484Z,24.60
2022-08-11T13:39:20.806Z,24.60
2022-08-11T13:41:51.419Z,24.40
2022-08-11T13:44:24.723Z,24.80
2022-08-11T13:46:55.409Z,24.90
2022-08-11T13:49:22.805Z,24.90
2022-08-11T13:51:50.045Z,24.90
2022-08-11T13:54:19.816Z,25.00
2022-08-11T13:56:47.885Z,25.10
2022-08-11T13:59:16.017Z,25.30
2022-08-11T14:02:20.235Z,25.30
2022-08-11T14:04:40.632Z,25.20
2022-08-11T14:07:09.280Z,25.40
2022-08-11T14:09:37.837Z,25.40
2022-08-11T14:12:27.676Z,25.50
2022-08-11T14:15:05.791Z,25.70
2022-08-11T14:17:48.189Z,26.20
2022-08-11T14:20:40.154Z,26.50
2022-08-11T14:23:05.459Z,26.70
2022-08-11T14:26:00.433Z,26.30
2022-08-11T14:28:33.861Z,26.10
2022-08-11T14:31:05.459Z,26.10
2022-08-11T14:34:00.606Z,26.00
2022-08-11T14:36:21.840Z,25.80
2022-08-11T14:38:51.034Z,25.60
2022-08-11T14:41:36.750Z,25.20
2022-08-11T14:44:23.097Z,24.90
2022-08-11T14:47:24.500Z,24.60
2022-08-11T14:50:02.566Z,24.50
2022-08-11T14:52:43.440Z,24.40
2022-08-11T14:55:29.786Z,24.40
2022-08-11T14:57:57.403Z,24.40
2022-08-11T15:00:25.226Z,24.40
2022-08-11T15:03:12.217Z,24.30
2022-08-11T15:05:52.402Z,24.40
2022-08-11T15:08:50.156Z,24.40
2022-08-11T15:11:37.061Z,24.30
2022-08-11T15:14:06.298Z,24.20
2022-08-11T15:16:52.102Z,24.30
2022-08-11T15:19:21.517Z,24.50
2022-08-11T15:22:08.048Z,24.60
2022-08-11T15:24:36.743Z,24.70
2022-08-11T15:27:24.287Z,24.40
2022-08-11T15:30:10.411Z,24.40
2022-08-11T15:33:07.279Z,24.40
2022-08-11T15:35:54.464Z,24.30
2022-08-11T15:38:22.253Z,24.20
2022-08-11T15:41:09.415Z,24.10
2022-08-11T15:44:00.686Z,24.20
2022-08-11T15:46:27.837Z,24.20
2022-08-11T15:49:11.262Z,24.30
2022-08-11T15:51:41.785Z,24.20
2022-08-11T15:54:16.603Z,24.00
2022-08-11T15:56:44.988Z,23.90
2022-08-11T15:59:42.315Z,24.10
2022-08-11T16:02:16.507Z,24.10
2022-08-11T16:04:45.612Z,24.20
2022-08-11T16:07:16.567Z,24.10
2022-08-11T16:10:21.803Z,24.20
2022-08-11T16:13:37.389Z,24.20
2022-08-11T16:16:18.962Z,24.10
2022-08-11T16:18:51.711Z,24.00
2022-08-11T16:21:33.533Z,23.90
2022-08-11T16:24:05.083Z,23.80
2022-08-11T16:27:09.352Z,23.70
2022-08-11T16:29:21.970Z,23.60
2022-08-11T16:32:11.994Z,23.60
2022-08-11T16:35:04.762Z,23.70
2022-08-11T16:41:11.690Z,23.80
2022-08-11T16:44:37.427Z,23.60
2022-08-11T16:47:10.451Z,23.50
2022-08-11T16:50:04.504Z,23.50
2022-08-11T16:59:19.000Z,23.50
2022-08-11T17:05:32.005Z,23.50
2022-08-11T19:25:51.796Z,20.80
2022-08-11T19:28:40.985Z,20.80
2022-08-11T19:31:29.400Z,20.80
2022-08-11T19:34:16.707Z,20.80
2022-08-11T19:37:06.839Z,20.70
2022-08-11T19:39:54.277Z,20.70
2022-08-11T19:42:40.993Z,20.30
2022-08-11T19:45:28.120Z,20.70
2022-08-11T19:48:31.077Z,20.70
2022-08-11T19:51:19.148Z,20.80
2022-08-11T19:54:07.336Z,20.40
2022-08-11T19:56:55.061Z,19.90
2022-08-11T19:59:41.864Z,20.60
2022-08-11T20:02:28.446Z,20.50
2022-08-11T20:05:16.049Z,20.20
2022-08-11T20:08:05.204Z,20.30
2022-08-11T20:10:52.276Z,20.10
2022-08-11T20:13:41.604Z,20.10
2022-08-11T20:16:31.446Z,20.00
2022-08-11T20:19:19.631Z,19.80
2022-08-11T20:22:16.479Z,19.70
2022-08-11T20:25:03.218Z,19.70
2022-08-11T20:27:55.499Z,19.70
2022-08-11T20:30:41.570Z,19.60
2022-08-11T20:33:28.302Z,19.50
2022-08-11T20:36:15.050Z,19.50
2022-08-11T20:39:01.027Z,20.00
2022-08-11T20:41:58.168Z,19.40
2022-08-11T20:44:46.195Z,19.20
2022-08-11T20:47:56.489Z,19.10
2022-08-11T20:50:42.275Z,19.00
2022-08-11T20:53:35.676Z,19.00
2022-08-11T20:56:28.497Z,18.90
2022-08-11T20:59:21.643Z,18.90
2022-08-11T21:06:09.475Z,18.60
2022-08-11T21:08:50.232Z,19.70
2022-08-11T21:11:36.649Z,18.50
2022-08-11T21:14:25.911Z,18.40
2022-08-11T21:17:27.618Z,18.30
2022-08-11T21:20:21.044Z,18.40
2022-08-11T21:23:23.570Z,18.40
2022-08-11T21:26:15.369Z,18.50
2022-08-11T21:29:01.221Z,18.30
2022-08-11T21:31:49.091Z,18.20
2022-08-11T21:34:36.298Z,18.10
2022-08-11T21:37:25.710Z,18.10
2022-08-11T21:40:16.871Z,18.00
2022-08-11T21:43:06.151Z,17.90
2022-08-11T21:45:54.297Z,17.90
2022-08-11T21:48:40.645Z,17.80
2022-08-11T21:51:26.621Z,17.80
2022-08-11T21:54:15.094Z,17.80
2022-08-11T21:57:01.524Z,18.30
2022-08-11T21:59:54.476Z,17.60
2022-08-11T22:02:41.672Z,17.60
2022-08-11T22:05:28.716Z,17.50
2022-08-11T22:08:14.745Z,17.50
2022-08-11T22:11:00.404Z,17.50
2022-08-11T22:14:05.750Z,17.40
2022-08-11T22:16:53.276Z,17.40
2022-08-11T22:19:40.517Z,17.30
2022-08-11T22:22:27.481Z,17.30
2022-08-11T22:25:16.299Z,17.40
2022-08-11T22:28:04.311Z,17.30
2022-08-11T22:30:50.553Z,17.20
2022-08-11T22:33:39.653Z,17.10
2022-08-11T22:36:43.758Z,17.10
2022-08-11T22:39:31.057Z,17.10
2022-08-11T22:42:33.586Z,17.10
2022-08-11T22:45:23.348Z,17.00
2022-08-11T22:48:09.494Z,17.00
2022-08-11T22:50:56.054Z,16.90
2022-08-11T22:53:55.270Z,16.90
2022-08-11T22:56:48.740Z,16.80
2022-08-11T22:59:34.985Z,16.80
2022-08-11T23:02:21.507Z,16.80
2022-08-11T23:05:08.122Z,16.80
2022-08-11T23:07:54.282Z,17.00
2022-08-11T23:10:40.934Z,16.90
2022-08-11T23:13:28.076Z,16.60
2022-08-11T23:16:14.766Z,16.60
2022-08-11T23:19:01.095Z,16.50
2022-08-11T23:21:47.494Z,16.50
2022-08-11T23:24:33.929Z,16.40
2022-08-11T23:27:21.361Z,16.40
2022-08-11T23:30:10.010Z,16.30
2022-08-11T23:32:56.329Z,16.30
2022-08-11T23:35:53.890Z,16.30
2022-08-11T23:38:44.336Z,16.10
2022-08-11T23:41:32.722Z,16.10
2022-08-11T23:44:23.711Z,16.10
2022-08-11T23:47:11.127Z,16.10
2022-08-11T23:49:57.750Z,15.60
2022-08-11T23:52:44.797Z,15.90
2022-08-11T23:55:30.925Z,16.00
2022-08-11T23:58:17.477Z,16.00
